Kansas City, Missouri
Current Conditions -  °F | °C
As of 6:54 AM on Wednesday 22 Oct 2014 (Local Time) from KMKC Reporting Station
Few Clouds Few Clouds  
Wind Chill: 13°   Ceiling: Unl
Heat Index: 13°   Visibility: 10mi
Dew Point:   Wind: 6mph
Humidity: 67%   Direction: 100°E
Pressure: 30.18"   Gusts: NA
Location:  39.1°N, 94.58°W
Report Text: KMKC 221154Z 10005KT 10SM FEW060 13/07 A3018 RMK AO2 SLP217 T01330072 10150 20133 53014
Loading
Personal Weather Stations






























Interactive Weather Map
Tropical Storm Tracking
New forecast layout! Learn more

10-Day Weather Forecast

Advertisements
Track Severe Weather on mobile